sensor_id;sensor_type;location;lat;lon;timestamp;P1;durP1;ratioP1;P2;durP2;ratioP2
2177;SDS011;1095;50.992;6.798;2023-04-01T00:00:21;2.65;;;1.00;;
2177;SDS011;1095;50.992;6.798;2023-04-01T00:02:48;2.67;;;0.85;;
2177;SDS011;1095;50.992;6.798;2023-04-01T00:05:15;2.75;;;1.02;;
2177;SDS011;1095;50.992;6.798;2023-04-01T00:07:44;4.22;;;2.28;;
2177;SDS011;1095;50.992;6.798;2023-04-01T00:10:11;2.42;;;1.23;;
2177;SDS011;1095;50.992;6.798;2023-04-01T00:12:38;3.13;;;1.55;;
2177;SDS011;1095;50.992;6.798;2023-04-01T00:15:06;3.13;;;1.00;;
2177;SDS011;1095;50.992;6.798;2023-04-01T00:17:34;2.78;;;1.30;;
2177;SDS011;1095;50.992;6.798;2023-04-01T00:20:01;2.88;;;0.98;;
2177;SDS011;1095;50.992;6.798;2023-04-01T00:22:28;2.50;;;1.42;;
2177;SDS011;1095;50.992;6.798;2023-04-01T00:24:57;2.83;;;1.23;;
2177;SDS011;1095;50.992;6.798;2023-04-01T00:27:23;1.95;;;0.98;;
2177;SDS011;1095;50.992;6.798;2023-04-01T00:29:51;4.72;;;1.30;;
2177;SDS011;1095;50.992;6.798;2023-04-01T00:32:17;2.47;;;1.08;;
2177;SDS011;1095;50.992;6.798;2023-04-01T00:34:44;1.35;;;0.95;;
2177;SDS011;1095;50.992;6.798;2023-04-01T00:37:11;2.63;;;1.10;;
2177;SDS011;1095;50.992;6.798;2023-04-01T00:39:37;3.85;;;1.20;;
2177;SDS011;1095;50.992;6.798;2023-04-01T00:42:08;3.38;;;1.60;;
2177;SDS011;1095;50.992;6.798;2023-04-01T00:44:36;1.73;;;0.77;;
2177;SDS011;1095;50.992;6.798;2023-04-01T00:47:03;1.95;;;1.00;;
2177;SDS011;1095;50.992;6.798;2023-04-01T00:49:31;3.38;;;1.10;;
2177;SDS011;1095;50.992;6.798;2023-04-01T00:52:02;1.42;;;0.75;;
2177;SDS011;1095;50.992;6.798;2023-04-01T00:54:32;2.17;;;1.13;;
2177;SDS011;1095;50.992;6.798;2023-04-01T00:57:03;3.47;;;1.00;;
2177;SDS011;1095;50.992;6.798;2023-04-01T00:59:35;3.17;;;1.02;;
2177;SDS011;1095;50.992;6.798;2023-04-01T01:02:05;2.63;;;1.05;;
2177;SDS011;1095;50.992;6.798;2023-04-01T01:04:36;2.25;;;1.33;;
2177;SDS011;1095;50.992;6.798;2023-04-01T01:07:07;3.30;;;1.00;;
2177;SDS011;1095;50.992;6.798;2023-04-01T01:09:45;5.95;;;0.88;;
2177;SDS011;1095;50.992;6.798;2023-04-01T01:12:23;5.00;;;1.23;;
2177;SDS011;1095;50.992;6.798;2023-04-01T01:14:56;1.85;;;0.93;;
2177;SDS011;1095;50.992;6.798;2023-04-01T01:17:33;1.27;;;1.00;;
2177;SDS011;1095;50.992;6.798;2023-04-01T01:20:16;1.95;;;1.08;;
2177;SDS011;1095;50.992;6.798;2023-04-01T01:23:14;4.07;;;1.30;;
2177;SDS011;1095;50.992;6.798;2023-04-01T01:25:59;1.77;;;0.80;;
2177;SDS011;1095;50.992;6.798;2023-04-01T01:28:42;3.13;;;1.05;;
2177;SDS011;1095;50.992;6.798;2023-04-01T01:31:19;1.75;;;0.88;;
2177;SDS011;1095;50.992;6.798;2023-04-01T01:33:55;3.10;;;1.05;;
2177;SDS011;1095;50.992;6.798;2023-04-01T01:36:31;4.13;;;1.23;;
2177;SDS011;1095;50.992;6.798;2023-04-01T01:38:59;2.90;;;0.77;;
2177;SDS011;1095;50.992;6.798;2023-04-01T01:41:27;3.33;;;0.77;;
2177;SDS011;1095;50.992;6.798;2023-04-01T01:43:55;3.35;;;1.27;;
2177;SDS011;1095;50.992;6.798;2023-04-01T01:46:23;0.68;;;0.50;;
2177;SDS011;1095;50.992;6.798;2023-04-01T01:48:52;2.20;;;1.23;;
2177;SDS011;1095;50.992;6.798;2023-04-01T01:51:21;2.63;;;1.38;;
2177;SDS011;1095;50.992;6.798;2023-04-01T01:53:50;5.90;;;1.55;;
2177;SDS011;1095;50.992;6.798;2023-04-01T01:56:17;2.30;;;0.80;;
2177;SDS011;1095;50.992;6.798;2023-04-01T01:58:47;3.55;;;1.17;;
2177;SDS011;1095;50.992;6.798;2023-04-01T02:01:19;3.28;;;0.77;;
2177;SDS011;1095;50.992;6.798;2023-04-01T02:03:50;2.92;;;1.13;;
2177;SDS011;1095;50.992;6.798;2023-04-01T02:06:18;1.60;;;0.65;;
2177;SDS011;1095;50.992;6.798;2023-04-01T02:08:50;2.20;;;0.73;;
2177;SDS011;1095;50.992;6.798;2023-04-01T02:11:19;1.08;;;0.50;;
2177;SDS011;1095;50.992;6.798;2023-04-01T02:13:50;2.03;;;1.05;;
2177;SDS011;1095;50.992;6.798;2023-04-01T02:16:20;1.25;;;0.80;;
2177;SDS011;1095;50.992;6.798;2023-04-01T02:18:50;1.13;;;0.60;;
2177;SDS011;1095;50.992;6.798;2023-04-01T02:21:20;1.65;;;0.93;;
2177;SDS011;1095;50.992;6.798;2023-04-01T02:23:50;2.05;;;0.65;;
2177;SDS011;1095;50.992;6.798;2023-04-01T02:26:19;1.33;;;0.55;;
2177;SDS011;1095;50.992;6.798;2023-04-01T02:28:47;2.25;;;1.23;;
2177;SDS011;1095;50.992;6.798;2023-04-01T02:31:16;2.65;;;0.50;;
2177;SDS011;1095;50.992;6.798;2023-04-01T02:33:43;1.95;;;0.82;;
2177;SDS011;1095;50.992;6.798;2023-04-01T02:36:11;0.20;;;0.20;;
2177;SDS011;1095;50.992;6.798;2023-04-01T02:38:39;2.03;;;1.00;;
2177;SDS011;1095;50.992;6.798;2023-04-01T02:41:09;3.42;;;0.95;;
2177;SDS011;1095;50.992;6.798;2023-04-01T02:43:36;3.13;;;0.63;;
2177;SDS011;1095;50.992;6.798;2023-04-01T02:46:02;0.98;;;0.40;;
2177;SDS011;1095;50.992;6.798;2023-04-01T02:48:30;0.50;;;0.50;;
2177;SDS011;1095;50.992;6.798;2023-04-01T02:50:56;1.52;;;0.63;;
2177;SDS011;1095;50.992;6.798;2023-04-01T02:53:23;2.55;;;0.52;;
2177;SDS011;1095;50.992;6.798;2023-04-01T02:55:50;1.27;;;0.60;;
2177;SDS011;1095;50.992;6.798;2023-04-01T02:58:18;1.00;;;0.47;;
2177;SDS011;1095;50.992;6.798;2023-04-01T03:00:45;1.55;;;0.50;;
2177;SDS011;1095;50.992;6.798;2023-04-01T03:03:13;0.85;;;0.70;;
2177;SDS011;1095;50.992;6.798;2023-04-01T03:05:39;1.27;;;0.40;;
2177;SDS011;1095;50.992;6.798;2023-04-01T03:08:06;1.15;;;0.40;;
2177;SDS011;1095;50.992;6.798;2023-04-01T03:10:33;1.38;;;0.52;;
2177;SDS011;1095;50.992;6.798;2023-04-01T03:13:00;0.63;;;0.50;;
2177;SDS011;1095;50.992;6.798;2023-04-01T03:15:28;0.47;;;0.43;;
2177;SDS011;1095;50.992;6.798;2023-04-01T03:17:54;1.83;;;0.80;;
2177;SDS011;1095;50.992;6.798;2023-04-01T03:20:21;2.20;;;0.80;;
2177;SDS011;1095;50.992;6.798;2023-04-01T03:22:48;1.27;;;0.60;;
2177;SDS011;1095;50.992;6.798;2023-04-01T03:25:14;3.47;;;0.75;;
2177;SDS011;1095;50.992;6.798;2023-04-01T03:27:41;1.05;;;0.63;;
2177;SDS011;1095;50.992;6.798;2023-04-01T03:30:08;1.48;;;0.55;;
2177;SDS011;1095;50.992;6.798;2023-04-01T03:32:36;1.85;;;0.65;;
2177;SDS011;1095;50.992;6.798;2023-04-01T03:35:03;0.77;;;0.47;;
2177;SDS011;1095;50.992;6.798;2023-04-01T03:37:31;0.52;;;0.40;;
2177;SDS011;1095;50.992;6.798;2023-04-01T03:39:57;1.10;;;0.63;;
2177;SDS011;1095;50.992;6.798;2023-04-01T03:42:24;2.35;;;0.80;;
2177;SDS011;1095;50.992;6.798;2023-04-01T03:44:51;3.35;;;0.75;;
2177;SDS011;1095;50.992;6.798;2023-04-01T03:47:17;1.00;;;0.45;;
2177;SDS011;1095;50.992;6.798;2023-04-01T03:49:45;2.00;;;0.70;;
2177;SDS011;1095;50.992;6.798;2023-04-01T03:52:12;2.90;;;0.38;;
2177;SDS011;1095;50.992;6.798;2023-04-01T03:54:39;0.77;;;0.55;;
2177;SDS011;1095;50.992;6.798;2023-04-01T03:57:05;1.17;;;0.50;;
2177;SDS011;1095;50.992;6.798;2023-04-01T03:59:32;2.10;;;0.82;;
2177;SDS011;1095;50.992;6.798;2023-04-01T04:01:58;1.27;;;0.65;;
2177;SDS011;1095;50.992;6.798;2023-04-01T04:04:25;2.42;;;0.77;;
2177;SDS011;1095;50.992;6.798;2023-04-01T04:06:54;0.80;;;0.80;;
2177;SDS011;1095;50.992;6.798;2023-04-01T04:09:21;1.65;;;0.65;;
2177;SDS011;1095;50.992;6.798;2023-04-01T04:11:48;0.82;;;0.75;;
2177;SDS011;1095;50.992;6.798;2023-04-01T04:14:16;0.90;;;0.50;;
2177;SDS011;1095;50.992;6.798;2023-04-01T04:16:42;0.93;;;0.60;;
2177;SDS011;1095;50.992;6.798;2023-04-01T04:19:09;1.55;;;0.70;;
2177;SDS011;1095;50.992;6.798;2023-04-01T04:21:36;4.05;;;1.00;;
2177;SDS011;1095;50.992;6.798;2023-04-01T04:24:04;1.17;;;0.60;;
2177;SDS011;1095;50.992;6.798;2023-04-01T04:26:31;1.85;;;0.50;;
2177;SDS011;1095;50.992;6.798;2023-04-01T04:28:58;4.82;;;2.72;;
2177;SDS011;1095;50.992;6.798;2023-04-01T04:31:24;2.25;;;0.70;;
2177;SDS011;1095;50.992;6.798;2023-04-01T04:33:52;0.73;;;0.50;;
2177;SDS011;1095;50.992;6.798;2023-04-01T04:36:19;1.00;;;0.50;;
2177;SDS011;1095;50.992;6.798;2023-04-01T04:38:46;2.40;;;1.30;;
2177;SDS011;1095;50.992;6.798;2023-04-01T04:41:15;1.60;;;0.65;;
2177;SDS011;1095;50.992;6.798;2023-04-01T04:43:48;2.00;;;0.80;;
2177;SDS011;1095;50.992;6.798;2023-04-01T04:46:16;2.88;;;0.80;;
2177;SDS011;1095;50.992;6.798;2023-04-01T04:48:42;0.85;;;0.68;;
2177;SDS011;1095;50.992;6.798;2023-04-01T04:51:12;0.82;;;0.68;;
2177;SDS011;1095;50.992;6.798;2023-04-01T04:53:40;2.50;;;1.20;;
2177;SDS011;1095;50.992;6.798;2023-04-01T04:56:07;1.23;;;0.90;;
2177;SDS011;1095;50.992;6.798;2023-04-01T04:58:35;1.55;;;1.10;;
2177;SDS011;1095;50.992;6.798;2023-04-01T05:01:05;3.05;;;1.20;;
2177;SDS011;1095;50.992;6.798;2023-04-01T05:03:32;0.90;;;0.85;;
2177;SDS011;1095;50.992;6.798;2023-04-01T05:05:59;4.43;;;1.30;;
2177;SDS011;1095;50.992;6.798;2023-04-01T05:08:25;1.13;;;1.02;;
2177;SDS011;1095;50.992;6.798;2023-04-01T05:10:52;1.60;;;1.40;;
2177;SDS011;1095;50.992;6.798;2023-04-01T05:13:18;1.98;;;1.80;;
2177;SDS011;1095;50.992;6.798;2023-04-01T05:15:46;1.77;;;1.55;;
2177;SDS011;1095;50.992;6.798;2023-04-01T05:18:13;2.38;;;1.90;;
2177;SDS011;1095;50.992;6.798;2023-04-01T05:20:45;4.72;;;2.53;;
2177;SDS011;1095;50.992;6.798;2023-04-01T05:23:12;2.28;;;2.08;;
2177;SDS011;1095;50.992;6.798;2023-04-01T05:25:39;3.95;;;2.10;;
2177;SDS011;1095;50.992;6.798;2023-04-01T05:28:06;3.30;;;2.28;;
2177;SDS011;1095;50.992;6.798;2023-04-01T05:30:32;4.55;;;2.60;;
2177;SDS011;1095;50.992;6.798;2023-04-01T05:33:00;2.53;;;2.33;;
2177;SDS011;1095;50.992;6.798;2023-04-01T05:35:27;2.92;;;2.55;;
2177;SDS011;1095;50.992;6.798;2023-04-01T05:37:54;3.97;;;2.65;;
2177;SDS011;1095;50.992;6.798;2023-04-01T05:40:20;3.25;;;2.58;;
2177;SDS011;1095;50.992;6.798;2023-04-01T05:42:47;3.20;;;2.72;;
2177;SDS011;1095;50.992;6.798;2023-04-01T05:45:13;3.60;;;3.00;;
2177;SDS011;1095;50.992;6.798;2023-04-01T05:47:41;4.38;;;2.75;;
2177;SDS011;1095;50.992;6.798;2023-04-01T05:50:09;2.90;;;2.60;;
2177;SDS011;1095;50.992;6.798;2023-04-01T05:52:36;3.78;;;2.80;;
2177;SDS011;1095;50.992;6.798;2023-04-01T05:55:03;2.80;;;2.55;;
2177;SDS011;1095;50.992;6.798;2023-04-01T05:57:31;3.25;;;2.78;;
2177;SDS011;1095;50.992;6.798;2023-04-01T05:59:57;4.57;;;2.47;;
2177;SDS011;1095;50.992;6.798;2023-04-01T06:02:24;3.92;;;3.38;;
2177;SDS011;1095;50.992;6.798;2023-04-01T06:04:52;3.88;;;2.40;;
2177;SDS011;1095;50.992;6.798;2023-04-01T06:07:29;2.55;;;2.35;;
2177;SDS011;1095;50.992;6.798;2023-04-01T06:09:56;2.63;;;2.10;;
2177;SDS011;1095;50.992;6.798;2023-04-01T06:12:31;3.40;;;2.20;;
2177;SDS011;1095;50.992;6.798;2023-04-01T06:15:11;4.57;;;2.63;;
2177;SDS011;1095;50.992;6.798;2023-04-01T06:17:48;3.35;;;2.65;;
2177;SDS011;1095;50.992;6.798;2023-04-01T06:28:26;4.00;;;2.65;;
2177;SDS011;1095;50.992;6.798;2023-04-01T06:31:23;3.30;;;3.00;;
2177;SDS011;1095;50.992;6.798;2023-04-01T06:34:03;3.20;;;2.65;;
2177;SDS011;1095;50.992;6.798;2023-04-01T06:36:41;3.35;;;2.60;;
2177;SDS011;1095;50.992;6.798;2023-04-01T06:39:29;3.20;;;2.90;;
2177;SDS011;1095;50.992;6.798;2023-04-01T06:42:22;4.60;;;3.22;;
2177;SDS011;1095;50.992;6.798;2023-04-01T06:45:05;5.97;;;3.20;;
2177;SDS011;1095;50.992;6.798;2023-04-01T06:47:47;4.38;;;3.03;;
2177;SDS011;1095;50.992;6.798;2023-04-01T06:50:29;4.40;;;3.00;;
2177;SDS011;1095;50.992;6.798;2023-04-01T06:53:01;5.85;;;3.42;;
2177;SDS011;1095;50.992;6.798;2023-04-01T06:55:37;7.25;;;3.22;;
2177;SDS011;1095;50.992;6.798;2023-04-01T06:58:13;5.93;;;3.58;;
2177;SDS011;1095;50.992;6.798;2023-04-01T07:00:48;3.67;;;2.97;;
2177;SDS011;1095;50.992;6.798;2023-04-01T07:03:19;4.25;;;3.38;;
2177;SDS011;1095;50.992;6.798;2023-04-01T07:05:48;7.22;;;4.35;;
2177;SDS011;1095;50.992;6.798;2023-04-01T07:08:20;7.63;;;4.78;;
2177;SDS011;1095;50.992;6.798;2023-04-01T07:10:55;5.13;;;3.35;;
2177;SDS011;1095;50.992;6.798;2023-04-01T07:13:32;5.95;;;3.70;;
2177;SDS011;1095;50.992;6.798;2023-04-01T07:16:14;5.03;;;3.70;;
2177;SDS011;1095;50.992;6.798;2023-04-01T07:18:46;7.53;;;3.90;;
2177;SDS011;1095;50.992;6.798;2023-04-01T07:21:22;7.18;;;3.38;;
2177;SDS011;1095;50.992;6.798;2023-04-01T07:23:52;5.57;;;3.47;;
2177;SDS011;1095;50.992;6.798;2023-04-01T07:26:27;6.28;;;3.75;;
2177;SDS011;1095;50.992;6.798;2023-04-01T07:28:55;5.15;;;3.65;;
2177;SDS011;1095;50.992;6.798;2023-04-01T07:31:28;6.05;;;3.90;;
2177;SDS011;1095;50.992;6.798;2023-04-01T07:34:12;4.45;;;3.72;;
2177;SDS011;1095;50.992;6.798;2023-04-01T07:36:46;4.93;;;4.10;;
2177;SDS011;1095;50.992;6.798;2023-04-01T07:39:24;4.35;;;3.63;;
2177;SDS011;1095;50.992;6.798;2023-04-01T07:42:00;5.00;;;3.72;;
2177;SDS011;1095;50.992;6.798;2023-04-01T07:44:37;7.65;;;4.00;;
2177;SDS011;1095;50.992;6.798;2023-04-01T07:47:15;4.07;;;3.53;;
2177;SDS011;1095;50.992;6.798;2023-04-01T07:49:54;5.82;;;4.05;;
2177;SDS011;1095;50.992;6.798;2023-04-01T07:52:34;5.63;;;3.30;;
2177;SDS011;1095;50.992;6.798;2023-04-01T07:55:06;3.63;;;3.20;;
2177;SDS011;1095;50.992;6.798;2023-04-01T07:57:42;4.47;;;3.30;;
2177;SDS011;1095;50.992;6.798;2023-04-01T08:00:15;4.13;;;3.38;;
2177;SDS011;1095;50.992;6.798;2023-04-01T08:02:59;3.35;;;3.05;;
2177;SDS011;1095;50.992;6.798;2023-04-01T08:05:40;5.45;;;3.22;;
2177;SDS011;1095;50.992;6.798;2023-04-01T08:08:13;3.15;;;2.80;;
2177;SDS011;1095;50.992;6.798;2023-04-01T08:10:46;3.38;;;3.00;;
2177;SDS011;1095;50.992;6.798;2023-04-01T08:15:53;3.00;;;2.70;;
2177;SDS011;1095;50.992;6.798;2023-04-01T08:18:32;3.97;;;2.95;;
2177;SDS011;1095;50.992;6.798;2023-04-01T08:21:05;3.28;;;2.92;;
2177;SDS011;1095;50.992;6.798;2023-04-01T08:23:38;4.07;;;3.30;;
2177;SDS011;1095;50.992;6.798;2023-04-01T08:26:10;4.65;;;3.08;;
2177;SDS011;1095;50.992;6.798;2023-04-01T08:28:43;3.88;;;3.10;;
2177;SDS011;1095;50.992;6.798;2023-04-01T08:31:16;3.38;;;2.83;;
2177;SDS011;1095;50.992;6.798;2023-04-01T08:33:49;6.00;;;3.30;;
2177;SDS011;1095;50.992;6.798;2023-04-01T08:36:20;4.07;;;3.38;;
2177;SDS011;1095;50.992;6.798;2023-04-01T08:38:51;2.58;;;2.38;;
2177;SDS011;1095;50.992;6.798;2023-04-01T08:41:29;2.72;;;2.53;;
2177;SDS011;1095;50.992;6.798;2023-04-01T08:44:24;3.40;;;2.80;;
2177;SDS011;1095;50.992;6.798;2023-04-01T08:53:27;6.53;;;3.75;;
2177;SDS011;1095;50.992;6.798;2023-04-01T08:56:20;7.10;;;5.13;;
2177;SDS011;1095;50.992;6.798;2023-04-01T08:58:55;5.75;;;4.28;;
2177;SDS011;1095;50.992;6.798;2023-04-01T09:04:18;5.03;;;3.80;;
2177;SDS011;1095;50.992;6.798;2023-04-01T09:07:04;2.50;;;2.30;;
2177;SDS011;1095;50.992;6.798;2023-04-01T09:09:53;4.65;;;3.50;;
2177;SDS011;1095;50.992;6.798;2023-04-01T09:15:47;5.40;;;4.50;;
2177;SDS011;1095;50.992;6.798;2023-04-01T09:21:31;4.88;;;3.50;;
2177;SDS011;1095;50.992;6.798;2023-04-01T09:24:19;3.90;;;3.20;;
2177;SDS011;1095;50.992;6.798;2023-04-01T09:27:02;4.95;;;3.90;;
2177;SDS011;1095;50.992;6.798;2023-04-01T09:29:42;5.38;;;4.05;;
2177;SDS011;1095;50.992;6.798;2023-04-01T09:32:29;4.25;;;3.85;;
2177;SDS011;1095;50.992;6.798;2023-04-01T09:35:36;4.50;;;3.60;;
2177;SDS011;1095;50.992;6.798;2023-04-01T09:38:16;4.85;;;3.30;;
2177;SDS011;1095;50.992;6.798;2023-04-01T09:40:48;3.65;;;3.30;;
2177;SDS011;1095;50.992;6.798;2023-04-01T09:43:22;3.95;;;3.40;;
2177;SDS011;1095;50.992;6.798;2023-04-01T09:45:58;3.97;;;3.17;;
2177;SDS011;1095;50.992;6.798;2023-04-01T09:48:40;3.50;;;3.20;;
2177;SDS011;1095;50.992;6.798;2023-04-01T09:51:29;4.45;;;3.17;;
2177;SDS011;1095;50.992;6.798;2023-04-01T09:54:07;3.95;;;3.55;;
2177;SDS011;1095;50.992;6.798;2023-04-01T09:59:47;3.75;;;3.35;;
2177;SDS011;1095;50.992;6.798;2023-04-01T10:05:37;4.10;;;3.70;;
2177;SDS011;1095;50.992;6.798;2023-04-01T10:08:27;4.45;;;3.80;;
2177;SDS011;1095;50.992;6.798;2023-04-01T10:11:44;4.53;;;3.70;;
2177;SDS011;1095;50.992;6.798;2023-04-01T10:14:51;3.65;;;3.08;;
2177;SDS011;1095;50.992;6.798;2023-04-01T10:17:56;3.72;;;3.30;;
2177;SDS011;1095;50.992;6.798;2023-04-01T10:21:02;3.28;;;2.97;;
2177;SDS011;1095;50.992;6.798;2023-04-01T10:23:50;3.60;;;3.22;;
2177;SDS011;1095;50.992;6.798;2023-04-01T10:26:33;3.70;;;3.30;;
2177;SDS011;1095;50.992;6.798;2023-04-01T10:29:19;4.50;;;3.65;;
2177;SDS011;1095;50.992;6.798;2023-04-01T10:32:10;5.05;;;4.00;;
2177;SDS011;1095;50.992;6.798;2023-04-01T10:38:25;4.43;;;3.90;;
2177;SDS011;1095;50.992;6.798;2023-04-01T10:44:28;5.32;;;4.40;;
2177;SDS011;1095;50.992;6.798;2023-04-01T10:50:38;4.75;;;4.10;;
2177;SDS011;1095;50.992;6.798;2023-04-01T10:53:31;4.57;;;3.92;;
2177;SDS011;1095;50.992;6.798;2023-04-01T10:56:11;4.43;;;3.88;;
2177;SDS011;1095;50.992;6.798;2023-04-01T11:08:19;5.57;;;4.20;;
2177;SDS011;1095;50.992;6.798;2023-04-01T11:11:14;3.50;;;3.20;;
2177;SDS011;1095;50.992;6.798;2023-04-01T11:16:57;3.70;;;3.30;;
2177;SDS011;1095;50.992;6.798;2023-04-01T11:19:57;4.28;;;3.45;;
2177;SDS011;1095;50.992;6.798;2023-04-01T11:22:48;4.05;;;3.42;;
2177;SDS011;1095;50.992;6.798;2023-04-01T11:25:41;3.35;;;3.05;;
2177;SDS011;1095;50.992;6.798;2023-04-01T11:28:21;4.00;;;3.60;;
2177;SDS011;1095;50.992;6.798;2023-04-01T11:31:18;3.90;;;3.47;;
2177;SDS011;1095;50.992;6.798;2023-04-01T11:33:53;3.78;;;3.40;;
2177;SDS011;1095;50.992;6.798;2023-04-01T11:36:32;3.80;;;3.40;;
2177;SDS011;1095;50.992;6.798;2023-04-01T11:39:14;3.70;;;3.40;;
2177;SDS011;1095;50.992;6.798;2023-04-01T11:41:50;4.10;;;3.70;;
2177;SDS011;1095;50.992;6.798;2023-04-01T11:44:23;3.92;;;3.53;;
2177;SDS011;1095;50.992;6.798;2023-04-01T11:46:59;3.90;;;3.50;;
2177;SDS011;1095;50.992;6.798;2023-04-01T11:49:41;3.92;;;3.53;;
2177;SDS011;1095;50.992;6.798;2023-04-01T11:52:21;4.60;;;3.88;;
2177;SDS011;1095;50.992;6.798;2023-04-01T11:55:16;4.35;;;3.95;;
2177;SDS011;1095;50.992;6.798;2023-04-01T11:57:53;4.68;;;3.90;;
2177;SDS011;1095;50.992;6.798;2023-04-01T12:00:57;4.15;;;3.55;;
2177;SDS011;1095;50.992;6.798;2023-04-01T12:06:43;3.40;;;3.10;;
2177;SDS011;1095;50.992;6.798;2023-04-01T12:09:18;4.18;;;3.65;;
2177;SDS011;1095;50.992;6.798;2023-04-01T12:11:52;3.75;;;3.40;;
2177;SDS011;1095;50.992;6.798;2023-04-01T12:14:30;3.67;;;3.28;;
2177;SDS011;1095;50.992;6.798;2023-04-01T12:17:07;3.55;;;3.20;;
2177;SDS011;1095;50.992;6.798;2023-04-01T12:19:45;5.30;;;3.65;;
2177;SDS011;1095;50.992;6.798;2023-04-01T12:22:30;3.42;;;3.08;;
2177;SDS011;1095;50.992;6.798;2023-04-01T12:27:44;3.78;;;3.38;;
2177;SDS011;1095;50.992;6.798;2023-04-01T12:33:26;3.53;;;3.22;;
2177;SDS011;1095;50.992;6.798;2023-04-01T12:36:06;4.00;;;3.60;;
2177;SDS011;1095;50.992;6.798;2023-04-01T12:38:42;4.45;;;3.65;;
2177;SDS011;1095;50.992;6.798;2023-04-01T12:41:18;3.80;;;3.40;;
2177;SDS011;1095;50.992;6.798;2023-04-01T12:44:04;4.07;;;3.63;;
2177;SDS011;1095;50.992;6.798;2023-04-01T12:47:10;3.88;;;3.47;;
2177;SDS011;1095;50.992;6.798;2023-04-01T12:49:55;4.15;;;3.55;;
2177;SDS011;1095;50.992;6.798;2023-04-01T12:52:44;4.15;;;3.75;;
2177;SDS011;1095;50.992;6.798;2023-04-01T12:55:34;4.80;;;4.10;;
2177;SDS011;1095;50.992;6.798;2023-04-01T12:58:15;6.82;;;3.72;;
2177;SDS011;1095;50.992;6.798;2023-04-01T13:01:03;4.70;;;3.15;;
2177;SDS011;1095;50.992;6.798;2023-04-01T13:03:46;4.05;;;3.65;;
2177;SDS011;1095;50.992;6.798;2023-04-01T13:06:32;4.30;;;3.83;;
2177;SDS011;1095;50.992;6.798;2023-04-01T13:09:13;4.00;;;3.60;;
2177;SDS011;1095;50.992;6.798;2023-04-01T13:11:52;4.65;;;3.60;;
2177;SDS011;1095;50.992;6.798;2023-04-01T13:14:36;3.70;;;3.40;;
2177;SDS011;1095;50.992;6.798;2023-04-01T13:17:17;4.75;;;3.90;;
2177;SDS011;1095;50.992;6.798;2023-04-01T13:19:49;4.75;;;4.25;;
2177;SDS011;1095;50.992;6.798;2023-04-01T13:22:24;5.60;;;4.43;;
2177;SDS011;1095;50.992;6.798;2023-04-01T13:24:57;4.82;;;4.32;;
2177;SDS011;1095;50.992;6.798;2023-04-01T13:27:30;4.75;;;4.25;;
2177;SDS011;1095;50.992;6.798;2023-04-01T13:30:08;4.72;;;4.15;;
2177;SDS011;1095;50.992;6.798;2023-04-01T13:32:48;5.15;;;4.35;;
2177;SDS011;1095;50.992;6.798;2023-04-01T13:35:23;4.63;;;4.20;;
2177;SDS011;1095;50.992;6.798;2023-04-01T13:38:05;4.75;;;4.07;;
2177;SDS011;1095;50.992;6.798;2023-04-01T13:40:49;5.32;;;4.20;;
2177;SDS011;1095;50.992;6.798;2023-04-01T13:43:25;4.60;;;4.10;;
2177;SDS011;1095;50.992;6.798;2023-04-01T13:46:06;5.10;;;4.60;;
2177;SDS011;1095;50.992;6.798;2023-04-01T13:51:56;5.28;;;4.60;;
2177;SDS011;1095;50.992;6.798;2023-04-01T13:54:50;9.07;;;5.80;;
2177;SDS011;1095;50.992;6.798;2023-04-01T13:57:33;6.38;;;4.78;;
2177;SDS011;1095;50.992;6.798;2023-04-01T14:03:14;5.90;;;4.97;;
2177;SDS011;1095;50.992;6.798;2023-04-01T14:06:04;5.80;;;5.18;;
2177;SDS011;1095;50.992;6.798;2023-04-01T14:08:44;6.57;;;5.40;;
2177;SDS011;1095;50.992;6.798;2023-04-01T14:11:25;6.82;;;6.03;;
2177;SDS011;1095;50.992;6.798;2023-04-01T14:13:59;6.60;;;5.45;;
2177;SDS011;1095;50.992;6.798;2023-04-01T14:19:38;6.60;;;5.78;;
2177;SDS011;1095;50.992;6.798;2023-04-01T14:22:28;8.13;;;6.45;;
2177;SDS011;1095;50.992;6.798;2023-04-01T14:25:06;7.55;;;6.20;;
2177;SDS011;1095;50.992;6.798;2023-04-01T14:27:50;8.02;;;6.53;;
2177;SDS011;1095;50.992;6.798;2023-04-01T14:30:35;8.95;;;6.22;;
2177;SDS011;1095;50.992;6.798;2023-04-01T14:33:17;7.57;;;6.32;;
2177;SDS011;1095;50.992;6.798;2023-04-01T14:35:56;7.65;;;6.32;;
2177;SDS011;1095;50.992;6.798;2023-04-01T14:38:40;8.32;;;6.85;;
2177;SDS011;1095;50.992;6.798;2023-04-01T14:41:20;8.55;;;7.00;;
2177;SDS011;1095;50.992;6.798;2023-04-01T14:46:58;8.20;;;7.10;;
2177;SDS011;1095;50.992;6.798;2023-04-01T14:49:35;8.40;;;7.00;;
2177;SDS011;1095;50.992;6.798;2023-04-01T14:52:09;13.40;;;7.93;;
2177;SDS011;1095;50.992;6.798;2023-04-01T14:54:41;9.65;;;7.43;;
2177;SDS011;1095;50.992;6.798;2023-04-01T14:57:11;8.70;;;7.55;;
2177;SDS011;1095;50.992;6.798;2023-04-01T14:59:39;8.30;;;6.97;;
2177;SDS011;1095;50.992;6.798;2023-04-01T15:02:10;9.10;;;7.15;;
2177;SDS011;1095;50.992;6.798;2023-04-01T15:04:55;9.07;;;7.32;;
2177;SDS011;1095;50.992;6.798;2023-04-01T15:07:51;7.47;;;6.35;;
2177;SDS011;1095;50.992;6.798;2023-04-01T15:10:33;8.60;;;6.47;;
2177;SDS011;1095;50.992;6.798;2023-04-01T15:13:13;7.13;;;5.90;;
2177;SDS011;1095;50.992;6.798;2023-04-01T15:15:47;9.40;;;5.93;;
2177;SDS011;1095;50.992;6.798;2023-04-01T15:18:26;6.85;;;6.15;;
2177;SDS011;1095;50.992;6.798;2023-04-01T15:21:06;7.75;;;6.65;;
2177;SDS011;1095;50.992;6.798;2023-04-01T15:23:47;7.65;;;6.72;;
2177;SDS011;1095;50.992;6.798;2023-04-01T15:26:33;7.93;;;6.53;;
2177;SDS011;1095;50.992;6.798;2023-04-01T15:29:26;8.82;;;6.57;;
2177;SDS011;1095;50.992;6.798;2023-04-01T15:32:17;7.57;;;6.45;;
2177;SDS011;1095;50.992;6.798;2023-04-01T15:34:49;8.55;;;6.88;;
2177;SDS011;1095;50.992;6.798;2023-04-01T15:37:26;11.15;;;7.80;;
2177;SDS011;1095;50.992;6.798;2023-04-01T15:40:08;10.73;;;8.25;;
2177;SDS011;1095;50.992;6.798;2023-04-01T15:42:57;8.63;;;7.47;;
2177;SDS011;1095;50.992;6.798;2023-04-01T15:45:36;8.63;;;7.03;;
2177;SDS011;1095;50.992;6.798;2023-04-01T15:48:14;11.23;;;7.30;;
2177;SDS011;1095;50.992;6.798;2023-04-01T15:50:53;10.00;;;7.70;;
2177;SDS011;1095;50.992;6.798;2023-04-01T15:53:30;10.25;;;7.68;;
2177;SDS011;1095;50.992;6.798;2023-04-01T15:56:16;9.75;;;7.72;;
2177;SDS011;1095;50.992;6.798;2023-04-01T15:59:02;9.20;;;6.88;;
2177;SDS011;1095;50.992;6.798;2023-04-01T16:01:44;11.70;;;7.63;;
2177;SDS011;1095;50.992;6.798;2023-04-01T16:04:28;9.73;;;7.70;;
2177;SDS011;1095;50.992;6.798;2023-04-01T16:07:22;11.25;;;7.65;;
2177;SDS011;1095;50.992;6.798;2023-04-01T16:10:06;9.52;;;7.45;;
2177;SDS011;1095;50.992;6.798;2023-04-01T16:12:49;11.65;;;8.13;;
2177;SDS011;1095;50.992;6.798;2023-04-01T16:15:28;10.02;;;8.20;;
2177;SDS011;1095;50.992;6.798;2023-04-01T16:18:07;6.78;;;5.88;;
2177;SDS011;1095;50.992;6.798;2023-04-01T16:20:49;7.75;;;6.22;;
2177;SDS011;1095;50.992;6.798;2023-04-01T16:23:24;7.03;;;6.28;;
2177;SDS011;1095;50.992;6.798;2023-04-01T16:25:59;8.63;;;6.43;;
2177;SDS011;1095;50.992;6.798;2023-04-01T16:28:34;6.70;;;5.70;;
2177;SDS011;1095;50.992;6.798;2023-04-01T16:31:06;7.57;;;6.20;;
2177;SDS011;1095;50.992;6.798;2023-04-01T16:33:44;8.23;;;6.05;;
2177;SDS011;1095;50.992;6.798;2023-04-01T16:36:19;9.25;;;6.47;;
2177;SDS011;1095;50.992;6.798;2023-04-01T16:38:52;8.73;;;6.13;;
2177;SDS011;1095;50.992;6.798;2023-04-01T16:41:34;8.85;;;6.97;;
2177;SDS011;1095;50.992;6.798;2023-04-01T16:44:13;7.72;;;6.93;;
2177;SDS011;1095;50.992;6.798;2023-04-01T16:46:45;8.18;;;6.35;;
2177;SDS011;1095;50.992;6.798;2023-04-01T16:49:17;8.40;;;6.13;;
2177;SDS011;1095;50.992;6.798;2023-04-01T16:51:52;8.23;;;6.25;;
2177;SDS011;1095;50.992;6.798;2023-04-01T16:54:28;7.03;;;5.93;;
2177;SDS011;1095;50.992;6.798;2023-04-01T16:57:01;8.00;;;6.63;;
2177;SDS011;1095;50.992;6.798;2023-04-01T16:59:35;7.95;;;5.78;;
2177;SDS011;1095;50.992;6.798;2023-04-01T17:02:04;5.88;;;5.28;;
2177;SDS011;1095;50.992;6.798;2023-04-01T17:04:37;5.97;;;5.05;;
2177;SDS011;1095;50.992;6.798;2023-04-01T17:07:14;7.70;;;5.28;;
2177;SDS011;1095;50.992;6.798;2023-04-01T17:09:53;6.05;;;5.13;;
2177;SDS011;1095;50.992;6.798;2023-04-01T17:12:42;6.20;;;5.30;;
2177;SDS011;1095;50.992;6.798;2023-04-01T17:15:21;5.88;;;4.80;;
2177;SDS011;1095;50.992;6.798;2023-04-01T17:17:58;5.80;;;4.93;;
2177;SDS011;1095;50.992;6.798;2023-04-01T17:20:40;6.32;;;4.88;;
2177;SDS011;1095;50.992;6.798;2023-04-01T17:23:13;7.20;;;5.38;;